sensor_id;sensor_type;location;lat;lon;timestamp;temperature;humidity
56761;DHT22;42633;44.494;11.356;2022-08-01T00:02:27;27.50;54.60
56761;DHT22;42633;44.494;11.356;2022-08-01T00:05:32;27.50;54.60
56761;DHT22;42633;44.494;11.356;2022-08-01T00:08:36;27.40;54.80
56761;DHT22;42633;44.494;11.356;2022-08-01T00:11:40;27.40;55.00
56761;DHT22;42633;44.494;11.356;2022-08-01T00:14:45;27.30;55.40
56761;DHT22;42633;44.494;11.356;2022-08-01T00:17:49;27.30;55.50
56761;DHT22;42633;44.494;11.356;2022-08-01T00:20:53;27.20;55.90
56761;DHT22;42633;44.494;11.356;2022-08-01T00:23:57;27.20;55.30
56761;DHT22;42633;44.494;11.356;2022-08-01T00:27:01;27.20;55.50
56761;DHT22;42633;44.494;11.356;2022-08-01T00:30:06;27.10;55.40
56761;DHT22;42633;44.494;11.356;2022-08-01T00:33:10;27.10;55.50
56761;DHT22;42633;44.494;11.356;2022-08-01T00:36:15;27.10;55.40
56761;DHT22;42633;44.494;11.356;2022-08-01T00:39:19;27.10;55.50
56761;DHT22;42633;44.494;11.356;2022-08-01T00:42:22;27.10;55.60
56761;DHT22;42633;44.494;11.356;2022-08-01T00:45:26;27.10;55.60
56761;DHT22;42633;44.494;11.356;2022-08-01T00:48:30;27.10;55.70
56761;DHT22;42633;44.494;11.356;2022-08-01T00:51:35;27.00;55.80
56761;DHT22;42633;44.494;11.356;2022-08-01T00:54:39;27.00;55.80
56761;DHT22;42633;44.494;11.356;2022-08-01T00:57:43;27.00;55.80
56761;DHT22;42633;44.494;11.356;2022-08-01T01:00:47;27.00;55.50
56761;DHT22;42633;44.494;11.356;2022-08-01T01:03:52;26.90;55.50
56761;DHT22;42633;44.494;11.356;2022-08-01T01:13:44;26.90;55.90
56761;DHT22;42633;44.494;11.356;2022-08-01T01:16:51;26.80;56.00
56761;DHT22;42633;44.494;11.356;2022-08-01T01:19:59;26.80;56.00
56761;DHT22;42633;44.494;11.356;2022-08-01T01:29:34;26.70;55.90
56761;DHT22;42633;44.494;11.356;2022-08-01T01:32:43;26.70;56.20
56761;DHT22;42633;44.494;11.356;2022-08-01T01:35:52;26.70;56.20
56761;DHT22;42633;44.494;11.356;2022-08-01T01:38:57;26.70;56.20
56761;DHT22;42633;44.494;11.356;2022-08-01T01:42:07;26.70;56.00
56761;DHT22;42633;44.494;11.356;2022-08-01T01:45:11;26.60;55.90
56761;DHT22;42633;44.494;11.356;2022-08-01T01:48:20;26.70;55.90
56761;DHT22;42633;44.494;11.356;2022-08-01T01:51:27;26.70;55.90
56761;DHT22;42633;44.494;11.356;2022-08-01T01:54:37;26.60;55.80
56761;DHT22;42633;44.494;11.356;2022-08-01T01:57:44;26.60;55.80
56761;DHT22;42633;44.494;11.356;2022-08-01T02:00:50;26.60;55.80
56761;DHT22;42633;44.494;11.356;2022-08-01T02:03:56;26.50;55.90
56761;DHT22;42633;44.494;11.356;2022-08-01T02:07:00;26.60;56.10
56761;DHT22;42633;44.494;11.356;2022-08-01T02:10:07;26.50;55.90
56761;DHT22;42633;44.494;11.356;2022-08-01T02:13:12;26.60;56.10
56761;DHT22;42633;44.494;11.356;2022-08-01T02:16:17;26.50;56.10
56761;DHT22;42633;44.494;11.356;2022-08-01T02:19:22;26.50;56.10
56761;DHT22;42633;44.494;11.356;2022-08-01T02:22:33;26.50;56.50
56761;DHT22;42633;44.494;11.356;2022-08-01T02:25:48;26.50;56.40
56761;DHT22;42633;44.494;11.356;2022-08-01T02:28:57;26.50;56.40
56761;DHT22;42633;44.494;11.356;2022-08-01T02:32:03;26.50;56.50
56761;DHT22;42633;44.494;11.356;2022-08-01T02:35:13;26.40;56.50
56761;DHT22;42633;44.494;11.356;2022-08-01T02:38:24;26.40;56.40
56761;DHT22;42633;44.494;11.356;2022-08-01T02:41:30;26.30;56.50
56761;DHT22;42633;44.494;11.356;2022-08-01T02:44:39;26.30;56.60
56761;DHT22;42633;44.494;11.356;2022-08-01T02:47:45;26.20;56.70
56761;DHT22;42633;44.494;11.356;2022-08-01T02:50:53;26.20;56.80
56761;DHT22;42633;44.494;11.356;2022-08-01T02:53:59;26.10;56.70
56761;DHT22;42633;44.494;11.356;2022-08-01T02:57:06;26.10;56.80
56761;DHT22;42633;44.494;11.356;2022-08-01T03:00:11;26.10;56.90
56761;DHT22;42633;44.494;11.356;2022-08-01T03:03:16;26.10;57.00
56761;DHT22;42633;44.494;11.356;2022-08-01T03:06:20;26.00;56.90
56761;DHT22;42633;44.494;11.356;2022-08-01T03:09:30;26.00;57.00
56761;DHT22;42633;44.494;11.356;2022-08-01T03:12:37;26.00;57.20
56761;DHT22;42633;44.494;11.356;2022-08-01T03:15:44;26.00;57.00
56761;DHT22;42633;44.494;11.356;2022-08-01T03:18:51;26.00;57.00
56761;DHT22;42633;44.494;11.356;2022-08-01T03:21:57;26.00;57.10
56761;DHT22;42633;44.494;11.356;2022-08-01T03:25:03;25.90;57.00
56761;DHT22;42633;44.494;11.356;2022-08-01T03:28:08;25.90;57.10
56761;DHT22;42633;44.494;11.356;2022-08-01T03:31:16;25.90;57.00
56761;DHT22;42633;44.494;11.356;2022-08-01T03:34:20;25.90;57.00
56761;DHT22;42633;44.494;11.356;2022-08-01T03:37:42;25.90;57.00
56761;DHT22;42633;44.494;11.356;2022-08-01T03:41:11;25.90;57.10
56761;DHT22;42633;44.494;11.356;2022-08-01T03:44:21;25.90;57.20
56761;DHT22;42633;44.494;11.356;2022-08-01T03:47:31;25.90;57.30
56761;DHT22;42633;44.494;11.356;2022-08-01T03:50:39;25.90;57.30
56761;DHT22;42633;44.494;11.356;2022-08-01T03:53:45;25.90;57.30
56761;DHT22;42633;44.494;11.356;2022-08-01T03:56:51;25.90;57.50
56761;DHT22;42633;44.494;11.356;2022-08-01T03:59:57;25.90;57.60
56761;DHT22;42633;44.494;11.356;2022-08-01T04:03:02;25.90;57.30
56761;DHT22;42633;44.494;11.356;2022-08-01T04:06:07;25.80;57.50
56761;DHT22;42633;44.494;11.356;2022-08-01T04:09:14;25.80;57.90
56761;DHT22;42633;44.494;11.356;2022-08-01T04:12:19;25.80;57.90
56761;DHT22;42633;44.494;11.356;2022-08-01T04:15:23;25.70;58.10
56761;DHT22;42633;44.494;11.356;2022-08-01T04:18:27;25.70;57.90
56761;DHT22;42633;44.494;11.356;2022-08-01T04:21:32;25.70;58.20
56761;DHT22;42633;44.494;11.356;2022-08-01T04:24:39;25.60;58.00
56761;DHT22;42633;44.494;11.356;2022-08-01T04:27:48;25.70;57.90
56761;DHT22;42633;44.494;11.356;2022-08-01T04:30:54;25.70;57.80
56761;DHT22;42633;44.494;11.356;2022-08-01T04:34:02;25.70;57.70
56761;DHT22;42633;44.494;11.356;2022-08-01T04:37:09;25.60;57.70
56761;DHT22;42633;44.494;11.356;2022-08-01T04:40:16;25.70;57.80
56761;DHT22;42633;44.494;11.356;2022-08-01T04:43:21;25.60;57.80
56761;DHT22;42633;44.494;11.356;2022-08-01T04:46:27;25.70;57.80
56761;DHT22;42633;44.494;11.356;2022-08-01T04:49:33;25.60;57.80
56761;DHT22;42633;44.494;11.356;2022-08-01T04:52:38;25.70;57.80
56761;DHT22;42633;44.494;11.356;2022-08-01T04:55:43;25.70;57.80
56761;DHT22;42633;44.494;11.356;2022-08-01T04:58:48;25.70;57.80
56761;DHT22;42633;44.494;11.356;2022-08-01T05:02:14;25.70;57.70
56761;DHT22;42633;44.494;11.356;2022-08-01T05:05:19;25.70;57.60
56761;DHT22;42633;44.494;11.356;2022-08-01T05:08:25;25.80;57.70
56761;DHT22;42633;44.494;11.356;2022-08-01T05:11:29;25.80;57.80
56761;DHT22;42633;44.494;11.356;2022-08-01T05:14:35;25.80;58.40
56761;DHT22;42633;44.494;11.356;2022-08-01T05:17:39;25.90;57.70
56761;DHT22;42633;44.494;11.356;2022-08-01T05:20:43;26.00;57.40
56761;DHT22;42633;44.494;11.356;2022-08-01T05:23:48;26.50;56.50
56761;DHT22;42633;44.494;11.356;2022-08-01T05:26:53;27.20;55.30
56761;DHT22;42633;44.494;11.356;2022-08-01T05:29:58;27.80;54.50
56761;DHT22;42633;44.494;11.356;2022-08-01T05:33:04;28.20;53.90
56761;DHT22;42633;44.494;11.356;2022-08-01T05:36:09;28.40;53.30
56761;DHT22;42633;44.494;11.356;2022-08-01T05:39:15;28.60;53.10
56761;DHT22;42633;44.494;11.356;2022-08-01T05:42:20;28.70;53.00
56761;DHT22;42633;44.494;11.356;2022-08-01T05:45:26;28.70;53.20
56761;DHT22;42633;44.494;11.356;2022-08-01T05:48:33;28.70;53.10
56761;DHT22;42633;44.494;11.356;2022-08-01T05:51:38;28.70;53.20
56761;DHT22;42633;44.494;11.356;2022-08-01T05:54:42;28.70;53.20
56761;DHT22;42633;44.494;11.356;2022-08-01T05:57:46;28.70;53.30
56761;DHT22;42633;44.494;11.356;2022-08-01T06:00:50;28.60;53.30
56761;DHT22;42633;44.494;11.356;2022-08-01T06:03:55;28.60;53.40
56761;DHT22;42633;44.494;11.356;2022-08-01T06:07:08;28.50;53.50
56761;DHT22;42633;44.494;11.356;2022-08-01T06:10:19;28.40;53.70
56761;DHT22;42633;44.494;11.356;2022-08-01T06:13:24;28.30;53.90
56761;DHT22;42633;44.494;11.356;2022-08-01T06:16:28;28.30;54.40
56761;DHT22;42633;44.494;11.356;2022-08-01T06:19:33;28.10;54.30
56761;DHT22;42633;44.494;11.356;2022-08-01T06:22:37;28.10;55.00
56761;DHT22;42633;44.494;11.356;2022-08-01T06:25:43;28.00;55.00
56761;DHT22;42633;44.494;11.356;2022-08-01T06:28:47;27.90;55.20
56761;DHT22;42633;44.494;11.356;2022-08-01T06:31:52;27.90;55.20
56761;DHT22;42633;44.494;11.356;2022-08-01T06:34:56;27.90;55.00
56761;DHT22;42633;44.494;11.356;2022-08-01T06:38:02;28.00;55.10
56761;DHT22;42633;44.494;11.356;2022-08-01T06:41:06;28.10;55.20
56761;DHT22;42633;44.494;11.356;2022-08-01T06:44:11;28.20;55.40
56761;DHT22;42633;44.494;11.356;2022-08-01T06:47:15;28.20;55.30
56761;DHT22;42633;44.494;11.356;2022-08-01T06:50:19;28.20;55.20
56761;DHT22;42633;44.494;11.356;2022-08-01T06:53:24;28.30;55.20
56761;DHT22;42633;44.494;11.356;2022-08-01T06:56:28;28.30;55.10
56761;DHT22;42633;44.494;11.356;2022-08-01T06:59:33;28.40;55.30
56761;DHT22;42633;44.494;11.356;2022-08-01T07:02:37;28.40;55.00
56761;DHT22;42633;44.494;11.356;2022-08-01T07:05:41;28.40;54.90
56761;DHT22;42633;44.494;11.356;2022-08-01T07:08:45;28.50;55.20
56761;DHT22;42633;44.494;11.356;2022-08-01T07:11:49;28.50;55.10
56761;DHT22;42633;44.494;11.356;2022-08-01T07:14:55;28.60;54.00
56761;DHT22;42633;44.494;11.356;2022-08-01T07:18:00;28.70;54.20
56761;DHT22;42633;44.494;11.356;2022-08-01T07:21:08;28.70;54.40
56761;DHT22;42633;44.494;11.356;2022-08-01T07:24:13;28.80;54.30
56761;DHT22;42633;44.494;11.356;2022-08-01T07:27:18;28.80;54.10
56761;DHT22;42633;44.494;11.356;2022-08-01T07:30:22;29.00;54.20
56761;DHT22;42633;44.494;11.356;2022-08-01T07:33:26;29.00;54.20
56761;DHT22;42633;44.494;11.356;2022-08-01T07:36:32;29.10;54.60
56761;DHT22;42633;44.494;11.356;2022-08-01T07:39:36;29.10;54.40
56761;DHT22;42633;44.494;11.356;2022-08-01T07:42:40;29.20;54.50
56761;DHT22;42633;44.494;11.356;2022-08-01T07:45:47;29.30;54.40
56761;DHT22;42633;44.494;11.356;2022-08-01T07:48:51;29.40;54.30
56761;DHT22;42633;44.494;11.356;2022-08-01T07:51:55;29.50;54.10
56761;DHT22;42633;44.494;11.356;2022-08-01T07:54:59;29.60;54.20
56761;DHT22;42633;44.494;11.356;2022-08-01T07:58:03;29.70;53.50
56761;DHT22;42633;44.494;11.356;2022-08-01T08:01:07;29.80;53.70
56761;DHT22;42633;44.494;11.356;2022-08-01T08:04:11;29.90;53.60
56761;DHT22;42633;44.494;11.356;2022-08-01T08:07:16;30.00;54.20
56761;DHT22;42633;44.494;11.356;2022-08-01T08:10:20;30.10;54.20
56761;DHT22;42633;44.494;11.356;2022-08-01T08:13:24;30.20;53.70
56761;DHT22;42633;44.494;11.356;2022-08-01T08:16:28;30.30;53.90
56761;DHT22;42633;44.494;11.356;2022-08-01T08:19:32;30.30;53.70
56761;DHT22;42633;44.494;11.356;2022-08-01T08:22:37;30.30;53.70
56761;DHT22;42633;44.494;11.356;2022-08-01T08:25:41;30.50;53.80
56761;DHT22;42633;44.494;11.356;2022-08-01T08:28:45;30.50;53.80
56761;DHT22;42633;44.494;11.356;2022-08-01T08:31:51;30.60;53.80
56761;DHT22;42633;44.494;11.356;2022-08-01T08:34:56;30.80;53.70
56761;DHT22;42633;44.494;11.356;2022-08-01T08:38:01;30.90;53.50
56761;DHT22;42633;44.494;11.356;2022-08-01T08:41:05;31.00;53.30
56761;DHT22;42633;44.494;11.356;2022-08-01T08:44:09;31.00;53.50
56761;DHT22;42633;44.494;11.356;2022-08-01T08:47:14;31.00;53.70
56761;DHT22;42633;44.494;11.356;2022-08-01T08:50:19;31.30;53.70
56761;DHT22;42633;44.494;11.356;2022-08-01T08:53:24;31.40;53.30
56761;DHT22;42633;44.494;11.356;2022-08-01T08:56:30;31.50;52.90
56761;DHT22;42633;44.494;11.356;2022-08-01T08:59:38;31.60;52.10
56761;DHT22;42633;44.494;11.356;2022-08-01T09:02:43;31.60;52.50
56761;DHT22;42633;44.494;11.356;2022-08-01T09:05:47;31.80;52.20
56761;DHT22;42633;44.494;11.356;2022-08-01T09:08:53;31.90;52.60
56761;DHT22;42633;44.494;11.356;2022-08-01T09:12:11;31.90;52.80
56761;DHT22;42633;44.494;11.356;2022-08-01T09:18:47;32.30;51.70
56761;DHT22;42633;44.494;11.356;2022-08-01T09:22:16;32.50;50.80
56761;DHT22;42633;44.494;11.356;2022-08-01T09:25:50;32.60;51.00
56761;DHT22;42633;44.494;11.356;2022-08-01T09:28:56;32.70;51.40
56761;DHT22;42633;44.494;11.356;2022-08-01T09:32:05;32.70;51.20
56761;DHT22;42633;44.494;11.356;2022-08-01T09:35:24;32.80;51.10
56761;DHT22;42633;44.494;11.356;2022-08-01T09:38:28;32.90;50.90
56761;DHT22;42633;44.494;11.356;2022-08-01T09:41:32;33.00;50.00
56761;DHT22;42633;44.494;11.356;2022-08-01T09:44:40;33.20;49.70
56761;DHT22;42633;44.494;11.356;2022-08-01T09:47:45;33.30;48.70
56761;DHT22;42633;44.494;11.356;2022-08-01T09:50:51;33.30;49.00
56761;DHT22;42633;44.494;11.356;2022-08-01T09:53:56;33.40;49.20
56761;DHT22;42633;44.494;11.356;2022-08-01T09:57:10;33.60;49.50
56761;DHT22;42633;44.494;11.356;2022-08-01T10:00:17;33.80;49.10
56761;DHT22;42633;44.494;11.356;2022-08-01T10:03:24;33.90;49.00
56761;DHT22;42633;44.494;11.356;2022-08-01T10:06:28;34.00;48.50
56761;DHT22;42633;44.494;11.356;2022-08-01T10:09:34;34.10;48.20
56761;DHT22;42633;44.494;11.356;2022-08-01T10:12:40;34.20;47.50
56761;DHT22;42633;44.494;11.356;2022-08-01T10:15:44;34.10;47.20
56761;DHT22;42633;44.494;11.356;2022-08-01T10:18:48;34.20;46.90
56761;DHT22;42633;44.494;11.356;2022-08-01T10:21:54;34.20;47.00
56761;DHT22;42633;44.494;11.356;2022-08-01T10:25:02;34.40;47.20
56761;DHT22;42633;44.494;11.356;2022-08-01T10:28:13;34.40;47.30
56761;DHT22;42633;44.494;11.356;2022-08-01T10:31:19;34.50;47.20
56761;DHT22;42633;44.494;11.356;2022-08-01T10:34:23;34.50;46.80
56761;DHT22;42633;44.494;11.356;2022-08-01T10:37:28;34.50;47.00
56761;DHT22;42633;44.494;11.356;2022-08-01T10:40:32;34.60;46.90
56761;DHT22;42633;44.494;11.356;2022-08-01T10:43:37;34.80;46.80
56761;DHT22;42633;44.494;11.356;2022-08-01T10:46:46;34.90;46.40
56761;DHT22;42633;44.494;11.356;2022-08-01T10:50:07;34.90;47.00
56761;DHT22;42633;44.494;11.356;2022-08-01T10:53:17;35.20;47.30
56761;DHT22;42633;44.494;11.356;2022-08-01T10:56:22;35.30;47.00
56761;DHT22;42633;44.494;11.356;2022-08-01T10:59:28;35.40;47.10
56761;DHT22;42633;44.494;11.356;2022-08-01T11:02:34;35.40;46.90
56761;DHT22;42633;44.494;11.356;2022-08-01T11:05:51;35.60;46.40
56761;DHT22;42633;44.494;11.356;2022-08-01T11:08:57;35.70;46.00
56761;DHT22;42633;44.494;11.356;2022-08-01T11:12:15;35.70;45.80
56761;DHT22;42633;44.494;11.356;2022-08-01T11:15:21;35.70;45.80
56761;DHT22;42633;44.494;11.356;2022-08-01T11:18:30;35.70;45.00
56761;DHT22;42633;44.494;11.356;2022-08-01T11:22:01;35.60;45.20
56761;DHT22;42633;44.494;11.356;2022-08-01T11:25:07;35.60;45.10
56761;DHT22;42633;44.494;11.356;2022-08-01T11:34:57;35.80;43.80
56761;DHT22;42633;44.494;11.356;2022-08-01T11:38:26;35.90;44.20
56761;DHT22;42633;44.494;11.356;2022-08-01T11:41:35;36.00;44.40
56761;DHT22;42633;44.494;11.356;2022-08-01T11:44:58;36.10;43.80
56761;DHT22;42633;44.494;11.356;2022-08-01T11:48:17;36.20;43.80
56761;DHT22;42633;44.494;11.356;2022-08-01T11:51:22;36.00;44.00
56761;DHT22;42633;44.494;11.356;2022-08-01T11:54:31;35.70;44.30
56761;DHT22;42633;44.494;11.356;2022-08-01T11:57:36;35.70;44.50
56761;DHT22;42633;44.494;11.356;2022-08-01T12:00:42;35.90;44.20
56761;DHT22;42633;44.494;11.356;2022-08-01T12:03:56;36.10;44.10
56761;DHT22;42633;44.494;11.356;2022-08-01T12:07:17;36.10;44.10
56761;DHT22;42633;44.494;11.356;2022-08-01T12:10:24;36.10;44.00
56761;DHT22;42633;44.494;11.356;2022-08-01T12:13:42;36.30;43.70
56761;DHT22;42633;44.494;11.356;2022-08-01T12:16:54;36.30;43.30
56761;DHT22;42633;44.494;11.356;2022-08-01T12:19:59;36.30;43.10
56761;DHT22;42633;44.494;11.356;2022-08-01T12:23:14;36.50;43.20
56761;DHT22;42633;44.494;11.356;2022-08-01T12:26:18;36.50;43.20
56761;DHT22;42633;44.494;11.356;2022-08-01T12:29:40;36.70;43.20
56761;DHT22;42633;44.494;11.356;2022-08-01T12:32:46;36.80;43.00
56761;DHT22;42633;44.494;11.356;2022-08-01T12:35:51;37.00;42.70
56761;DHT22;42633;44.494;11.356;2022-08-01T12:39:01;37.00;41.70
56761;DHT22;42633;44.494;11.356;2022-08-01T12:42:07;37.00;41.50
56761;DHT22;42633;44.494;11.356;2022-08-01T12:45:25;37.00;41.20
56761;DHT22;42633;44.494;11.356;2022-08-01T12:48:31;37.00;41.00
56761;DHT22;42633;44.494;11.356;2022-08-01T12:51:35;37.00;41.50
56761;DHT22;42633;44.494;11.356;2022-08-01T12:55:19;37.00;42.10
56761;DHT22;42633;44.494;11.356;2022-08-01T12:58:30;37.00;42.40
56761;DHT22;42633;44.494;11.356;2022-08-01T13:01:35;37.00;42.10
56761;DHT22;42633;44.494;11.356;2022-08-01T13:04:51;36.90;42.40
56761;DHT22;42633;44.494;11.356;2022-08-01T13:07:56;37.00;42.40
56761;DHT22;42633;44.494;11.356;2022-08-01T13:11:05;37.00;42.10
56761;DHT22;42633;44.494;11.356;2022-08-01T13:14:32;37.10;41.80
56761;DHT22;42633;44.494;11.356;2022-08-01T13:17:38;37.10;42.10
56761;DHT22;42633;44.494;11.356;2022-08-01T13:20:44;37.10;42.30
56761;DHT22;42633;44.494;11.356;2022-08-01T13:24:12;37.00;42.20
56761;DHT22;42633;44.494;11.356;2022-08-01T13:27:21;37.00;42.10
56761;DHT22;42633;44.494;11.356;2022-08-01T13:30:30;37.00;42.20
56761;DHT22;42633;44.494;11.356;2022-08-01T13:33:48;36.90;42.00
56761;DHT22;42633;44.494;11.356;2022-08-01T13:36:52;37.10;42.00
56761;DHT22;42633;44.494;11.356;2022-08-01T13:39:59;37.10;41.90
56761;DHT22;42633;44.494;11.356;2022-08-01T13:43:03;37.10;41.70
56761;DHT22;42633;44.494;11.356;2022-08-01T13:46:07;37.20;41.80
56761;DHT22;42633;44.494;11.356;2022-08-01T13:49:12;37.20;41.10
56761;DHT22;42633;44.494;11.356;2022-08-01T13:52:18;37.20;41.60
56761;DHT22;42633;44.494;11.356;2022-08-01T13:55:23;37.20;41.70
56761;DHT22;42633;44.494;11.356;2022-08-01T13:58:26;37.20;41.30
56761;DHT22;42633;44.494;11.356;2022-08-01T14:01:32;37.20;40.70
56761;DHT22;42633;44.494;11.356;2022-08-01T14:04:37;37.20;41.10
56761;DHT22;42633;44.494;11.356;2022-08-01T14:07:44;37.20;40.70
56761;DHT22;42633;44.494;11.356;2022-08-01T14:10:49;37.10;40.00
56761;DHT22;42633;44.494;11.356;2022-08-01T14:13:53;37.20;40.20
56761;DHT22;42633;44.494;11.356;2022-08-01T14:16:57;37.30;40.80
56761;DHT22;42633;44.494;11.356;2022-08-01T14:20:01;37.10;40.50
56761;DHT22;42633;44.494;11.356;2022-08-01T14:23:09;37.00;40.80
56761;DHT22;42633;44.494;11.356;2022-08-01T14:26:13;37.10;41.00
56761;DHT22;42633;44.494;11.356;2022-08-01T14:29:17;37.10;41.00
56761;DHT22;42633;44.494;11.356;2022-08-01T14:32:21;37.20;40.70
56761;DHT22;42633;44.494;11.356;2022-08-01T14:35:25;37.30;40.90
56761;DHT22;42633;44.494;11.356;2022-08-01T14:38:29;37.20;40.60
56761;DHT22;42633;44.494;11.356;2022-08-01T14:41:37;37.30;40.90
56761;DHT22;42633;44.494;11.356;2022-08-01T14:44:42;37.20;40.60
56761;DHT22;42633;44.494;11.356;2022-08-01T14:47:46;37.20;40.50
56761;DHT22;42633;44.494;11.356;2022-08-01T14:50:51;37.20;39.80
56761;DHT22;42633;44.494;11.356;2022-08-01T14:53:55;36.90;39.80
56761;DHT22;42633;44.494;11.356;2022-08-01T14:57:00;36.90;40.00
56761;DHT22;42633;44.494;11.356;2022-08-01T15:00:06;36.80;40.10
56761;DHT22;42633;44.494;11.356;2022-08-01T15:03:11;36.80;40.20
56761;DHT22;42633;44.494;11.356;2022-08-01T15:06:17;36.80;39.30
56761;DHT22;42633;44.494;11.356;2022-08-01T15:09:21;36.90;40.10
56761;DHT22;42633;44.494;11.356;2022-08-01T15:12:26;36.90;39.60
56761;DHT22;42633;44.494;11.356;2022-08-01T15:15:31;37.00;39.80
56761;DHT22;42633;44.494;11.356;2022-08-01T15:18:35;37.00;39.90
56761;DHT22;42633;44.494;11.356;2022-08-01T15:21:41;36.90;39.80
56761;DHT22;42633;44.494;11.356;2022-08-01T15:24:45;36.80;39.80
56761;DHT22;42633;44.494;11.356;2022-08-01T15:27:49;36.70;39.20
56761;DHT22;42633;44.494;11.356;2022-08-01T15:30:53;36.70;39.10
56761;DHT22;42633;44.494;11.356;2022-08-01T15:33:57;36.70;39.00
56761;DHT22;42633;44.494;11.356;2022-08-01T15:37:02;36.60;38.90
56761;DHT22;42633;44.494;11.356;2022-08-01T15:40:07;36.60;38.80
56761;DHT22;42633;44.494;11.356;2022-08-01T15:43:12;36.60;39.10
56761;DHT22;42633;44.494;11.356;2022-08-01T15:46:17;36.50;38.20
56761;DHT22;42633;44.494;11.356;2022-08-01T15:49:21;36.40;38.80
56761;DHT22;42633;44.494;11.356;2022-08-01T15:52:26;36.40;39.20
56761;DHT22;42633;44.494;11.356;2022-08-01T15:55:30;36.30;40.10
56761;DHT22;42633;44.494;11.356;2022-08-01T15:58:34;36.30;40.70
56761;DHT22;42633;44.494;11.356;2022-08-01T16:01:39;36.20;40.60
56761;DHT22;42633;44.494;11.356;2022-08-01T16:04:44;36.10;41.30
56761;DHT22;42633;44.494;11.356;2022-08-01T16:07:48;36.10;42.90
56761;DHT22;42633;44.494;11.356;2022-08-01T16:10:52;36.00;43.90
56761;DHT22;42633;44.494;11.356;2022-08-01T16:13:57;35.90;44.00
56761;DHT22;42633;44.494;11.356;2022-08-01T16:17:02;35.70;44.30
56761;DHT22;42633;44.494;11.356;2022-08-01T16:20:07;35.60;44.20
56761;DHT22;42633;44.494;11.356;2022-08-01T16:23:13;35.50;44.40
56761;DHT22;42633;44.494;11.356;2022-08-01T16:26:18;35.50;44.40
56761;DHT22;42633;44.494;11.356;2022-08-01T16:29:23;35.40;44.60
56761;DHT22;42633;44.494;11.356;2022-08-01T16:32:28;35.40;44.80
56761;DHT22;42633;44.494;11.356;2022-08-01T16:35:32;35.40;45.20
56761;DHT22;42633;44.494;11.356;2022-08-01T16:38:39;35.90;45.00
56761;DHT22;42633;44.494;11.356;2022-08-01T16:41:43;37.40;44.00
56761;DHT22;42633;44.494;11.356;2022-08-01T16:44:47;38.60;42.80
56761;DHT22;42633;44.494;11.356;2022-08-01T16:47:51;39.50;42.10
56761;DHT22;42633;44.494;11.356;2022-08-01T16:50:56;40.00;41.70
56761;DHT22;42633;44.494;11.356;2022-08-01T16:54:00;40.70;41.60
56761;DHT22;42633;44.494;11.356;2022-08-01T16:57:04;41.10;41.00
56761;DHT22;42633;44.494;11.356;2022-08-01T17:00:14;41.40;40.70
56761;DHT22;42633;44.494;11.356;2022-08-01T17:03:18;41.20;40.80
56761;DHT22;42633;44.494;11.356;2022-08-01T17:06:24;41.40;40.90
56761;DHT22;42633;44.494;11.356;2022-08-01T17:09:28;41.00;40.80
56761;DHT22;42633;44.494;11.356;2022-08-01T17:12:32;41.20;40.90
56761;DHT22;42633;44.494;11.356;2022-08-01T17:15:36;41.00;40.80
56761;DHT22;42633;44.494;11.356;2022-08-01T17:18:40;40.80;40.90
56761;DHT22;42633;44.494;11.356;2022-08-01T17:21:44;40.20;41.30
56761;DHT22;42633;44.494;11.356;2022-08-01T17:24:48;39.00;42.00
56761;DHT22;42633;44.494;11.356;2022-08-01T17:27:54;37.60;43.10
56761;DHT22;42633;44.494;11.356;2022-08-01T17:30:59;36.70;44.10
56761;DHT22;42633;44.494;11.356;2022-08-01T17:34:03;35.90;44.80
56761;DHT22;42633;44.494;11.356;2022-08-01T17:37:08;35.40;45.40
56761;DHT22;42633;44.494;11.356;2022-08-01T17:40:13;35.10;46.00
56761;DHT22;42633;44.494;11.356;2022-08-01T17:43:17;34.80;46.10
56761;DHT22;42633;44.494;11.356;2022-08-01T17:46:21;34.70;46.30
56761;DHT22;42633;44.494;11.356;2022-08-01T17:49:25;34.50;46.40
56761;DHT22;42633;44.494;11.356;2022-08-01T17:52:30;34.40;46.60
56761;DHT22;42633;44.494;11.356;2022-08-01T17:55:35;34.30;46.80
56761;DHT22;42633;44.494;11.356;2022-08-01T17:58:39;34.20;47.10
56761;DHT22;42633;44.494;11.356;2022-08-01T18:01:43;34.10;47.30
56761;DHT22;42633;44.494;11.356;2022-08-01T18:04:47;33.90;47.40
56761;DHT22;42633;44.494;11.356;2022-08-01T18:07:51;33.90;47.60
56761;DHT22;42633;44.494;11.356;2022-08-01T18:10:56;33.70;47.80
56761;DHT22;42633;44.494;11.356;2022-08-01T18:14:03;33.70;48.00
56761;DHT22;42633;44.494;11.356;2022-08-01T18:17:08;33.60;48.30
56761;DHT22;42633;44.494;11.356;2022-08-01T18:20:15;33.50;48.50
56761;DHT22;42633;44.494;11.356;2022-08-01T18:23:19;33.40;48.50
56761;DHT22;42633;44.494;11.356;2022-08-01T18:26:24;33.30;48.80
56761;DHT22;42633;44.494;11.356;2022-08-01T18:29:29;33.20;49.00
56761;DHT22;42633;44.494;11.356;2022-08-01T18:32:33;33.10;49.90
56761;DHT22;42633;44.494;11.356;2022-08-01T18:35:38;33.00;49.60
56761;DHT22;42633;44.494;11.356;2022-08-01T18:38:42;32.90;49.90
56761;DHT22;42633;44.494;11.356;2022-08-01T18:41:46;32.80;50.10
56761;DHT22;42633;44.494;11.356;2022-08-01T18:44:51;32.70;50.30
56761;DHT22;42633;44.494;11.356;2022-08-01T18:47:55;32.70;51.10
56761;DHT22;42633;44.494;11.356;2022-08-01T18:50:59;32.60;50.70
56761;DHT22;42633;44.494;11.356;2022-08-01T18:54:03;32.50;50.90
56761;DHT22;42633;44.494;11.356;2022-08-01T18:57:07;32.50;51.00
56761;DHT22;42633;44.494;11.356;2022-08-01T19:00:12;32.40;51.30
56761;DHT22;42633;44.494;11.356;2022-08-01T19:03:17;32.40;51.60
56761;DHT22;42633;44.494;11.356;2022-08-01T19:06:23;32.30;51.80
56761;DHT22;42633;44.494;11.356;2022-08-01T19:09:29;32.20;52.00
56761;DHT22;42633;44.494;11.356;2022-08-01T19:12:34;32.20;52.10
56761;DHT22;42633;44.494;11.356;2022-08-01T19:15:38;32.10;52.30
56761;DHT22;42633;44.494;11.356;2022-08-01T19:18:44;32.00;52.20
56761;DHT22;42633;44.494;11.356;2022-08-01T19:21:49;32.00;52.30
56761;DHT22;42633;44.494;11.356;2022-08-01T19:24:53;31.90;52.40
56761;DHT22;42633;44.494;11.356;2022-08-01T19:27:58;31.80;52.50
56761;DHT22;42633;44.494;11.356;2022-08-01T19:31:03;31.70;52.90
56761;DHT22;42633;44.494;11.356;2022-08-01T19:34:11;31.70;53.20
56761;DHT22;42633;44.494;11.356;2022-08-01T19:37:15;31.60;53.10
56761;DHT22;42633;44.494;11.356;2022-08-01T19:40:21;31.50;53.20
56761;DHT22;42633;44.494;11.356;2022-08-01T19:43:25;31.50;53.50